createdAt,value
2022-10-05T00:02:53.914Z,7.30
2022-10-05T00:05:55.697Z,7.38
2022-10-05T00:08:57.618Z,7.31
2022-10-05T00:11:59.659Z,7.30
2022-10-05T00:15:01.585Z,7.19
2022-10-05T00:18:11.191Z,7.23
2022-10-05T00:21:20.245Z,7.26
2022-10-05T00:24:22.062Z,7.22
2022-10-05T00:27:32.166Z,7.23
2022-10-05T00:30:34.239Z,7.13
2022-10-05T00:33:36.832Z,7.15
2022-10-05T00:36:39.694Z,7.19
2022-10-05T00:39:42.240Z,7.18
2022-10-05T00:42:56.651Z,7.15
2022-10-05T00:46:22.048Z,7.23
2022-10-05T00:49:38.894Z,7.23
2022-10-05T00:53:39.583Z,7.21
2022-10-05T00:56:53.164Z,7.04
2022-10-05T01:00:13.353Z,7.11
2022-10-05T01:03:16.151Z,7.05
2022-10-05T01:06:44.101Z,6.96
2022-10-05T01:09:56.013Z,6.93
2022-10-05T01:13:40.000Z,6.90
2022-10-05T01:16:51.420Z,6.85
2022-10-05T01:20:13.278Z,6.79
2022-10-05T01:23:33.320Z,6.73
2022-10-05T01:26:56.165Z,6.70
2022-10-05T01:30:13.544Z,6.82
2022-10-05T01:33:18.507Z,6.83
2022-10-05T01:36:28.633Z,6.80
2022-10-05T01:40:01.392Z,6.80
2022-10-05T01:43:30.314Z,6.72
2022-10-05T01:46:42.348Z,6.63
2022-10-05T01:49:56.384Z,6.59
2022-10-05T01:53:13.250Z,6.38
2022-10-05T01:56:47.423Z,6.44
2022-10-05T02:00:14.591Z,6.53
2022-10-05T02:03:20.993Z,6.62
2022-10-05T02:06:30.710Z,6.64
2022-10-05T02:09:39.711Z,6.57
2022-10-05T02:12:43.623Z,6.62
2022-10-05T02:15:53.189Z,6.52
2022-10-05T02:19:00.312Z,6.45
2022-10-05T02:22:15.318Z,6.46
2022-10-05T02:25:20.408Z,6.50
2022-10-05T02:28:23.801Z,6.42
2022-10-05T02:31:31.547Z,6.37
2022-10-05T02:34:39.992Z,6.40
2022-10-05T02:38:09.576Z,6.30
2022-10-05T02:41:38.846Z,6.17
2022-10-05T02:45:03.757Z,6.13
2022-10-05T02:48:25.499Z,6.14
2022-10-05T02:51:35.863Z,6.18
2022-10-05T02:54:50.991Z,6.08
2022-10-05T02:58:12.122Z,6.12
2022-10-05T03:01:27.741Z,6.12
2022-10-05T03:04:37.397Z,6.13
2022-10-05T03:07:50.970Z,6.15
2022-10-05T03:11:04.803Z,6.13
2022-10-05T03:14:44.057Z,6.19
2022-10-05T03:18:20.455Z,5.96
2022-10-05T03:21:22.660Z,6.05
2022-10-05T03:24:43.817Z,6.09
2022-10-05T03:27:59.948Z,6.15
2022-10-05T03:31:23.973Z,6.10
2022-10-05T03:34:49.309Z,6.06
2022-10-05T03:38:15.663Z,6.12
2022-10-05T03:41:35.728Z,6.13
2022-10-05T03:45:09.590Z,6.05
2022-10-05T03:48:16.180Z,6.07
2022-10-05T03:51:29.965Z,6.02
2022-10-05T03:55:00.499Z,6.05
2022-10-05T03:58:20.327Z,6.01
2022-10-05T04:01:29.687Z,6.01
2022-10-05T04:04:38.741Z,6.09
2022-10-05T04:07:48.442Z,6.28
2022-10-05T04:10:54.988Z,6.21
2022-10-05T04:14:07.335Z,6.19
2022-10-05T04:17:14.648Z,6.17
2022-10-05T04:20:25.331Z,6.14
2022-10-05T04:23:48.569Z,6.09
2022-10-05T04:27:39.582Z,6.08
2022-10-05T04:30:45.607Z,6.09
2022-10-05T04:33:58.238Z,6.12
2022-10-05T04:37:05.587Z,6.22
2022-10-05T04:40:34.223Z,6.17
2022-10-05T04:43:50.693Z,6.19
2022-10-05T04:47:46.583Z,6.22
2022-10-05T04:51:50.286Z,6.12
2022-10-05T04:55:16.195Z,6.17
2022-10-05T04:58:25.566Z,6.16
2022-10-05T05:01:58.940Z,6.15
2022-10-05T05:05:20.505Z,6.17
2022-10-05T05:08:30.991Z,6.19
2022-10-05T05:12:22.667Z,6.29
2022-10-05T05:24:38.987Z,6.33
2022-10-05T05:27:50.072Z,6.35
2022-10-05T05:31:26.137Z,6.44
2022-10-05T05:35:05.874Z,6.52
2022-10-05T05:38:31.254Z,6.63
2022-10-05T05:41:54.333Z,6.85
2022-10-05T05:45:00.497Z,7.16
2022-10-05T05:48:09.465Z,7.44
2022-10-05T05:51:18.051Z,7.62
2022-10-05T05:54:41.340Z,7.74
2022-10-05T05:58:12.105Z,8.00
2022-10-05T06:01:42.038Z,8.28
2022-10-05T06:04:52.150Z,8.52
2022-10-05T06:07:56.255Z,8.78
2022-10-05T06:11:02.858Z,8.91
2022-10-05T06:14:11.556Z,9.11
2022-10-05T06:17:21.366Z,9.29
2022-10-05T06:20:31.140Z,9.57
2022-10-05T06:23:46.358Z,9.70
2022-10-05T06:27:18.307Z,9.87
2022-10-05T06:30:20.439Z,10.01
2022-10-05T06:33:41.690Z,10.14
2022-10-05T06:36:53.376Z,10.07
2022-10-05T06:40:44.341Z,10.19
2022-10-05T06:44:14.115Z,10.11
2022-10-05T06:47:47.571Z,10.03
2022-10-05T06:51:16.992Z,9.91
2022-10-05T06:55:01.285Z,9.74
2022-10-05T06:58:15.485Z,9.64
2022-10-05T07:01:25.296Z,9.83
2022-10-05T07:04:53.403Z,10.03
2022-10-05T07:07:59.426Z,10.14
2022-10-05T07:11:13.889Z,9.88
2022-10-05T07:14:27.781Z,10.23
2022-10-05T07:17:45.696Z,10.52
2022-10-05T07:21:14.688Z,10.50
2022-10-05T07:24:29.526Z,10.43
2022-10-05T07:27:42.538Z,10.72
2022-10-05T07:30:53.885Z,10.83
2022-10-05T07:34:02.980Z,11.08
2022-10-05T07:37:28.563Z,11.42
2022-10-05T07:40:42.143Z,11.36
2022-10-05T07:44:23.291Z,11.90
2022-10-05T07:47:31.289Z,11.99
2022-10-05T07:50:43.825Z,12.22
2022-10-05T07:54:03.204Z,12.35
2022-10-05T07:57:21.818Z,12.10
2022-10-05T08:00:37.956Z,12.25
2022-10-05T08:03:48.214Z,12.45
2022-10-05T08:06:53.209Z,12.51
2022-10-05T08:10:14.765Z,12.44
2022-10-05T08:13:39.739Z,12.17
2022-10-05T08:16:42.398Z,12.31
2022-10-05T08:19:48.527Z,12.36
2022-10-05T08:23:06.996Z,12.73
2022-10-05T08:26:15.413Z,12.79
2022-10-05T08:29:30.543Z,13.09
2022-10-05T08:32:41.249Z,13.16
2022-10-05T08:35:45.432Z,13.15
2022-10-05T08:38:47.794Z,12.95
2022-10-05T08:42:27.333Z,12.88
2022-10-05T08:45:29.107Z,13.13
2022-10-05T08:48:52.687Z,13.30
2022-10-05T08:52:25.999Z,12.74
2022-10-05T08:55:56.104Z,12.91
2022-10-05T08:59:25.924Z,12.70
2022-10-05T09:02:33.571Z,13.02
2022-10-05T09:05:47.446Z,12.98
2022-10-05T09:09:07.320Z,13.33
2022-10-05T09:12:21.620Z,13.43
2022-10-05T09:15:27.718Z,13.83
2022-10-05T09:19:00.405Z,14.07
2022-10-05T09:22:15.389Z,13.88
2022-10-05T09:25:39.622Z,13.63
2022-10-05T09:28:56.269Z,13.55
2022-10-05T09:32:35.601Z,14.13
2022-10-05T09:35:57.457Z,13.96
2022-10-05T09:39:05.262Z,14.03
2022-10-05T09:42:25.547Z,14.11
2022-10-05T09:45:27.483Z,14.58
2022-10-05T09:48:54.305Z,14.31
2022-10-05T09:52:06.276Z,14.34
2022-10-05T09:55:42.192Z,14.52
2022-10-05T09:59:08.834Z,14.87
2022-10-05T10:02:27.656Z,15.20
2022-10-05T10:05:56.900Z,15.35
2022-10-05T10:09:10.308Z,15.68
2022-10-05T10:13:02.330Z,15.97
2022-10-05T10:16:23.758Z,15.93
2022-10-05T10:19:56.486Z,16.17
2022-10-05T10:23:49.387Z,16.19
2022-10-05T10:27:09.876Z,15.79
2022-10-05T10:30:54.741Z,15.89
2022-10-05T10:34:29.501Z,15.70
2022-10-05T10:37:34.531Z,15.81
2022-10-05T10:40:55.090Z,15.82
2022-10-05T10:43:59.820Z,15.75
2022-10-05T10:47:23.957Z,15.76
2022-10-05T10:50:33.300Z,16.13
2022-10-05T10:54:22.275Z,16.14
2022-10-05T10:57:46.008Z,16.31
2022-10-05T11:00:59.639Z,16.29
2022-10-05T11:04:26.532Z,16.25
2022-10-05T11:07:57.133Z,16.32
2022-10-05T11:11:29.579Z,16.05
2022-10-05T11:15:05.597Z,16.15
2022-10-05T11:18:20.489Z,16.19
2022-10-05T11:21:31.800Z,16.68
2022-10-05T11:24:52.033Z,16.44
2022-10-05T11:28:14.368Z,16.56
2022-10-05T11:31:28.056Z,16.52
2022-10-05T11:34:48.375Z,16.67
2022-10-05T11:38:04.119Z,16.70
2022-10-05T11:41:41.353Z,16.75
2022-10-05T11:45:11.860Z,16.82
2022-10-05T11:48:32.324Z,16.76
2022-10-05T11:52:09.802Z,16.86
2022-10-05T11:55:39.749Z,16.65
2022-10-05T11:58:47.463Z,17.05
2022-10-05T12:02:43.064Z,17.18
2022-10-05T12:06:06.034Z,17.21
2022-10-05T12:10:10.977Z,16.97
2022-10-05T12:13:56.151Z,17.34
2022-10-05T12:17:03.074Z,17.22
2022-10-05T12:20:28.114Z,17.17
2022-10-05T12:23:42.746Z,17.14
2022-10-05T12:26:55.645Z,17.19
2022-10-05T12:30:07.005Z,17.14
2022-10-05T12:33:13.914Z,17.04
2022-10-05T12:36:18.267Z,16.76
2022-10-05T12:39:30.229Z,17.16
2022-10-05T12:42:42.843Z,17.18
2022-10-05T12:46:19.845Z,16.99
2022-10-05T12:49:30.770Z,16.99
2022-10-05T12:52:38.760Z,16.79
2022-10-05T12:56:02.189Z,16.91
2022-10-05T12:59:18.826Z,16.92
2022-10-05T13:02:51.034Z,16.89
2022-10-05T13:06:04.315Z,16.88
2022-10-05T13:09:19.118Z,16.97
2022-10-05T13:12:20.974Z,17.26
2022-10-05T13:15:36.499Z,17.15
2022-10-05T13:18:54.589Z,16.97
2022-10-05T13:22:04.998Z,17.11
2022-10-05T13:25:32.830Z,16.96
2022-10-05T13:28:39.378Z,17.18
2022-10-05T13:31:46.410Z,17.17
2022-10-05T13:35:00.399Z,17.14
2022-10-05T13:38:28.475Z,17.14
2022-10-05T13:41:30.314Z,17.26
2022-10-05T13:44:53.500Z,17.03
2022-10-05T13:48:26.965Z,16.82
2022-10-05T13:52:00.192Z,17.02
2022-10-05T13:55:11.691Z,16.97
2022-10-05T13:58:47.032Z,16.81
2022-10-05T14:02:03.074Z,16.90
2022-10-05T14:05:24.101Z,17.01
2022-10-05T14:08:32.297Z,16.83
2022-10-05T14:11:36.919Z,16.82
2022-10-05T14:14:59.459Z,16.79
2022-10-05T14:18:28.039Z,16.87
2022-10-05T14:21:32.003Z,16.65
2022-10-05T14:24:48.045Z,16.77
2022-10-05T14:28:01.054Z,16.68
2022-10-05T14:31:14.578Z,16.71
2022-10-05T14:34:27.582Z,16.66
2022-10-05T14:38:03.278Z,16.55
2022-10-05T14:41:08.685Z,16.52
2022-10-05T14:44:17.995Z,16.41
2022-10-05T14:47:24.289Z,16.46
2022-10-05T14:50:34.942Z,16.33
2022-10-05T14:53:44.532Z,16.31
2022-10-05T14:56:59.345Z,16.20
2022-10-05T15:00:11.409Z,16.12
2022-10-05T15:03:45.613Z,16.12
2022-10-05T15:07:04.444Z,16.01
2022-10-05T15:13:55.750Z,16.09
2022-10-05T15:17:05.876Z,16.08
2022-10-05T15:20:20.698Z,15.91
2022-10-05T15:23:31.721Z,15.87
2022-10-05T15:26:46.741Z,15.88
2022-10-05T15:30:00.728Z,15.85
2022-10-05T15:33:29.902Z,15.68
2022-10-05T15:37:04.605Z,15.66
2022-10-05T15:40:36.874Z,15.53
2022-10-05T15:43:47.085Z,15.32
2022-10-05T15:47:10.651Z,15.30
2022-10-05T15:50:21.977Z,15.12
2022-10-05T15:53:36.271Z,15.08
2022-10-05T15:56:43.046Z,15.02
2022-10-05T16:00:05.916Z,14.89
2022-10-05T16:03:21.720Z,14.88
2022-10-05T16:06:49.066Z,14.69
2022-10-05T16:10:02.903Z,14.63
2022-10-05T16:13:29.421Z,14.51
2022-10-05T16:16:52.996Z,14.38
2022-10-05T16:20:05.412Z,14.22
2022-10-05T16:23:22.086Z,14.14
2022-10-05T16:26:42.597Z,14.06
2022-10-05T16:30:02.944Z,13.98
2022-10-05T16:33:39.831Z,13.86
2022-10-05T16:37:02.726Z,13.77
2022-10-05T16:40:08.688Z,13.58
2022-10-05T16:43:29.033Z,13.54
2022-10-05T16:46:46.968Z,13.42
2022-10-05T16:49:57.837Z,13.32
2022-10-05T16:53:11.603Z,13.41
2022-10-05T16:56:19.706Z,13.43
2022-10-05T16:59:44.041Z,13.38
2022-10-05T17:02:58.177Z,13.40
2022-10-05T17:06:20.365Z,13.30
2022-10-05T17:10:03.713Z,13.21
2022-10-05T17:13:29.171Z,13.08
2022-10-05T17:17:26.660Z,13.01
2022-10-05T17:20:57.290Z,12.89
2022-10-05T17:24:22.608Z,12.80
2022-10-05T17:27:54.137Z,12.69
2022-10-05T17:30:58.977Z,12.63
2022-10-05T17:34:23.677Z,12.59
2022-10-05T17:37:43.965Z,12.61
2022-10-05T17:41:05.800Z,12.62
2022-10-05T17:44:13.922Z,12.55
2022-10-05T17:47:16.405Z,12.55
2022-10-05T17:50:55.507Z,12.51
2022-10-05T17:54:16.583Z,12.39
2022-10-05T17:57:25.697Z,12.49
2022-10-05T18:00:42.134Z,12.29
2022-10-05T18:03:51.828Z,12.25
2022-10-05T18:06:57.382Z,12.26
2022-10-05T18:10:04.647Z,12.26
2022-10-05T18:13:35.279Z,12.32
2022-10-05T18:16:57.256Z,12.30
2022-10-05T18:20:24.325Z,12.23
2022-10-05T18:23:30.097Z,12.27
2022-10-05T18:26:47.242Z,12.17
2022-10-05T18:30:09.431Z,11.97
2022-10-05T18:33:49.527Z,11.92
2022-10-05T18:37:27.085Z,11.87
2022-10-05T18:40:32.127Z,11.78
2022-10-05T18:43:51.469Z,11.77
2022-10-05T18:47:15.834Z,11.81
2022-10-05T18:50:38.853Z,11.75
2022-10-05T18:54:03.845Z,11.73
2022-10-05T18:57:30.017Z,11.67
2022-10-05T19:00:44.143Z,11.56
2022-10-05T19:03:55.299Z,11.53
2022-10-05T19:06:57.377Z,11.51
2022-10-05T19:10:07.858Z,11.47
2022-10-05T19:13:47.126Z,11.48
2022-10-05T19:17:08.134Z,11.44
2022-10-05T19:20:35.979Z,11.34
2022-10-05T19:23:42.787Z,11.22
2022-10-05T19:27:27.137Z,11.17
2022-10-05T19:30:44.019Z,11.22
2022-10-05T19:34:01.934Z,11.17
2022-10-05T19:37:21.437Z,11.09
2022-10-05T19:40:39.275Z,11.05
2022-10-05T19:43:58.561Z,10.99
2022-10-05T19:47:02.966Z,10.99
2022-10-05T19:50:22.126Z,10.92
2022-10-05T19:53:31.372Z,10.87
2022-10-05T19:56:34.424Z,10.87
2022-10-05T19:59:37.627Z,10.86
2022-10-05T20:02:42.186Z,10.82
2022-10-05T20:05:45.077Z,10.81
2022-10-05T20:08:49.826Z,10.76
2022-10-05T20:11:53.288Z,10.77
2022-10-05T20:15:25.410Z,10.69
2022-10-05T20:19:01.533Z,10.60
2022-10-05T20:22:24.091Z,10.60
2022-10-05T20:25:26.159Z,10.58
2022-10-05T20:28:32.271Z,10.53
2022-10-05T20:31:35.247Z,10.55
2022-10-05T20:34:41.535Z,10.54
2022-10-05T20:37:43.579Z,10.49
2022-10-05T20:40:50.081Z,10.48
2022-10-05T20:43:52.200Z,10.44
2022-10-05T20:46:57.698Z,10.40
2022-10-05T20:49:59.918Z,10.36
2022-10-05T20:53:02.122Z,10.37
2022-10-05T20:56:04.758Z,10.33
2022-10-05T20:59:06.845Z,10.30
2022-10-05T21:02:10.281Z,10.23
2022-10-05T21:05:12.566Z,10.25
2022-10-05T21:08:14.399Z,10.21
2022-10-05T21:11:17.578Z,10.21
2022-10-05T21:14:19.279Z,10.14
2022-10-05T21:17:21.254Z,10.14
2022-10-05T21:20:23.259Z,10.07
2022-10-05T21:23:25.284Z,10.05
2022-10-05T21:26:29.209Z,10.11
2022-10-05T21:29:35.454Z,10.17
2022-10-05T21:32:41.777Z,10.18
2022-10-05T21:35:46.068Z,10.23
2022-10-05T21:38:48.856Z,10.20
2022-10-05T21:41:50.787Z,10.18
2022-10-05T21:44:52.762Z,10.15
2022-10-05T21:47:54.761Z,10.15
2022-10-05T21:50:57.772Z,10.12
2022-10-05T21:54:07.346Z,10.19
2022-10-05T21:57:11.366Z,10.23
2022-10-05T22:00:16.484Z,10.15
2022-10-05T22:03:18.384Z,10.08
2022-10-05T22:06:20.179Z,10.08
2022-10-05T22:09:24.474Z,9.98
2022-10-05T22:12:26.563Z,9.92
2022-10-05T22:15:29.676Z,9.96
2022-10-05T22:18:31.798Z,9.90
2022-10-05T22:21:38.219Z,9.85
2022-10-05T22:24:40.065Z,9.90
2022-10-05T22:27:43.072Z,9.79
2022-10-05T22:30:45.416Z,9.82
2022-10-05T22:33:47.151Z,9.80
2022-10-05T22:36:49.076Z,9.73
2022-10-05T22:39:50.920Z,9.70
2022-10-05T22:42:54.575Z,9.61
2022-10-05T22:45:56.643Z,9.64
2022-10-05T22:48:58.457Z,9.65
2022-10-05T22:52:00.191Z,9.65
2022-10-05T22:55:02.242Z,9.59
2022-10-05T22:58:04.046Z,9.57
2022-10-05T23:01:08.546Z,9.53
2022-10-05T23:04:16.886Z,9.48
2022-10-05T23:07:18.745Z,9.43
2022-10-05T23:10:20.469Z,9.46
2022-10-05T23:13:22.639Z,9.43
2022-10-05T23:16:26.904Z,9.37
2022-10-05T23:19:30.144Z,9.36
2022-10-05T23:22:36.754Z,9.30
2022-10-05T23:25:38.543Z,9.32
2022-10-05T23:28:43.237Z,9.34
2022-10-05T23:31:45.175Z,9.22
2022-10-05T23:34:48.978Z,9.21
2022-10-05T23:37:51.076Z,9.27
2022-10-05T23:40:52.932Z,9.27
2022-10-05T23:43:55.374Z,9.17
2022-10-05T23:46:57.320Z,9.13
2022-10-05T23:50:01.621Z,9.23
2022-10-05T23:53:03.931Z,9.20
2022-10-05T23:56:06.093Z,9.15
2022-10-05T23:59:07.779Z,9.09
